sensor_id;sensor_type;location;lat;lon;timestamp;P1;durP1;ratioP1;P2;durP2;ratioP2
10260;SDS011;5175;42.606;23.388;2023-09-19T00:02:03;5.80;;;4.60;;
10260;SDS011;5175;42.606;23.388;2023-09-19T00:04:31;6.37;;;5.23;;
10260;SDS011;5175;42.606;23.388;2023-09-19T00:06:58;6.10;;;5.50;;
10260;SDS011;5175;42.606;23.388;2023-09-19T00:09:24;6.83;;;4.97;;
10260;SDS011;5175;42.606;23.388;2023-09-19T00:11:52;5.83;;;5.23;;
10260;SDS011;5175;42.606;23.388;2023-09-19T00:14:18;5.77;;;5.03;;
10260;SDS011;5175;42.606;23.388;2023-09-19T00:16:45;6.60;;;5.30;;
10260;SDS011;5175;42.606;23.388;2023-09-19T00:19:13;5.80;;;5.17;;
10260;SDS011;5175;42.606;23.388;2023-09-19T00:21:41;6.20;;;5.13;;
10260;SDS011;5175;42.606;23.388;2023-09-19T00:24:08;5.30;;;4.80;;
10260;SDS011;5175;42.606;23.388;2023-09-19T00:26:35;6.40;;;5.67;;
10260;SDS011;5175;42.606;23.388;2023-09-19T00:29:03;5.53;;;5.03;;
10260;SDS011;5175;42.606;23.388;2023-09-19T00:31:30;7.83;;;5.97;;
10260;SDS011;5175;42.606;23.388;2023-09-19T00:33:56;5.90;;;4.80;;
10260;SDS011;5175;42.606;23.388;2023-09-19T00:36:29;6.63;;;5.23;;
10260;SDS011;5175;42.606;23.388;2023-09-19T00:38:55;7.07;;;6.07;;
10260;SDS011;5175;42.606;23.388;2023-09-19T00:41:22;6.53;;;5.67;;
10260;SDS011;5175;42.606;23.388;2023-09-19T00:43:50;5.90;;;5.23;;
10260;SDS011;5175;42.606;23.388;2023-09-19T00:46:16;5.90;;;5.33;;
10260;SDS011;5175;42.606;23.388;2023-09-19T00:48:43;8.80;;;5.93;;
10260;SDS011;5175;42.606;23.388;2023-09-19T00:51:11;6.53;;;5.93;;
10260;SDS011;5175;42.606;23.388;2023-09-19T00:53:40;6.53;;;5.93;;
10260;SDS011;5175;42.606;23.388;2023-09-19T00:56:11;6.50;;;5.90;;
10260;SDS011;5175;42.606;23.388;2023-09-19T00:58:38;6.70;;;5.90;;
10260;SDS011;5175;42.606;23.388;2023-09-19T01:01:05;7.43;;;5.53;;
10260;SDS011;5175;42.606;23.388;2023-09-19T01:03:32;7.60;;;5.83;;
10260;SDS011;5175;42.606;23.388;2023-09-19T01:05:59;6.93;;;5.77;;
10260;SDS011;5175;42.606;23.388;2023-09-19T01:08:27;6.77;;;5.77;;
10260;SDS011;5175;42.606;23.388;2023-09-19T01:10:59;6.53;;;5.63;;
10260;SDS011;5175;42.606;23.388;2023-09-19T01:13:31;6.90;;;6.03;;
10260;SDS011;5175;42.606;23.388;2023-09-19T01:16:07;6.60;;;5.90;;
10260;SDS011;5175;42.606;23.388;2023-09-19T01:18:46;8.47;;;6.03;;
10260;SDS011;5175;42.606;23.388;2023-09-19T01:21:21;8.30;;;5.77;;
10260;SDS011;5175;42.606;23.388;2023-09-19T01:24:00;7.20;;;6.43;;
10260;SDS011;5175;42.606;23.388;2023-09-19T01:26:49;7.53;;;6.37;;
10260;SDS011;5175;42.606;23.388;2023-09-19T01:29:33;7.73;;;6.00;;
10260;SDS011;5175;42.606;23.388;2023-09-19T01:32:06;6.93;;;6.23;;
10260;SDS011;5175;42.606;23.388;2023-09-19T01:34:47;8.13;;;5.80;;
10260;SDS011;5175;42.606;23.388;2023-09-19T01:37:15;6.07;;;5.47;;
10260;SDS011;5175;42.606;23.388;2023-09-19T01:39:45;7.23;;;5.90;;
10260;SDS011;5175;42.606;23.388;2023-09-19T01:42:16;5.90;;;5.40;;
10260;SDS011;5175;42.606;23.388;2023-09-19T01:44:51;6.67;;;5.97;;
10260;SDS011;5175;42.606;23.388;2023-09-19T01:47:26;6.97;;;5.73;;
10260;SDS011;5175;42.606;23.388;2023-09-19T01:49:59;7.10;;;6.50;;
10260;SDS011;5175;42.606;23.388;2023-09-19T01:52:35;6.80;;;6.03;;
10260;SDS011;5175;42.606;23.388;2023-09-19T01:55:08;6.93;;;5.90;;
10260;SDS011;5175;42.606;23.388;2023-09-19T01:57:42;9.20;;;6.40;;
10260;SDS011;5175;42.606;23.388;2023-09-19T02:00:16;7.93;;;6.23;;
10260;SDS011;5175;42.606;23.388;2023-09-19T02:02:48;8.00;;;6.07;;
10260;SDS011;5175;42.606;23.388;2023-09-19T02:05:21;6.80;;;6.10;;
10260;SDS011;5175;42.606;23.388;2023-09-19T02:07:49;6.50;;;5.60;;
10260;SDS011;5175;42.606;23.388;2023-09-19T02:10:16;8.73;;;5.80;;
10260;SDS011;5175;42.606;23.388;2023-09-19T02:12:43;6.20;;;5.60;;
10260;SDS011;5175;42.606;23.388;2023-09-19T02:15:10;6.23;;;5.60;;
10260;SDS011;5175;42.606;23.388;2023-09-19T02:17:38;6.37;;;5.77;;
10260;SDS011;5175;42.606;23.388;2023-09-19T02:20:06;7.20;;;6.27;;
10260;SDS011;5175;42.606;23.388;2023-09-19T02:22:35;6.60;;;5.73;;
10260;SDS011;5175;42.606;23.388;2023-09-19T02:25:03;6.80;;;6.20;;
10260;SDS011;5175;42.606;23.388;2023-09-19T02:27:32;6.77;;;6.03;;
10260;SDS011;5175;42.606;23.388;2023-09-19T02:29:59;7.33;;;5.90;;
10260;SDS011;5175;42.606;23.388;2023-09-19T02:32:27;6.27;;;5.67;;
10260;SDS011;5175;42.606;23.388;2023-09-19T02:34:55;7.50;;;6.00;;
10260;SDS011;5175;42.606;23.388;2023-09-19T02:37:24;10.20;;;6.53;;
10260;SDS011;5175;42.606;23.388;2023-09-19T02:39:51;6.87;;;5.30;;
10260;SDS011;5175;42.606;23.388;2023-09-19T02:42:18;6.93;;;5.80;;
10260;SDS011;5175;42.606;23.388;2023-09-19T02:44:45;7.40;;;6.30;;
10260;SDS011;5175;42.606;23.388;2023-09-19T02:47:13;8.47;;;5.93;;
10260;SDS011;5175;42.606;23.388;2023-09-19T02:49:41;6.10;;;5.50;;
10260;SDS011;5175;42.606;23.388;2023-09-19T02:52:08;8.23;;;6.13;;
10260;SDS011;5175;42.606;23.388;2023-09-19T02:54:37;6.67;;;5.63;;
10260;SDS011;5175;42.606;23.388;2023-09-19T02:57:04;6.90;;;6.20;;
10260;SDS011;5175;42.606;23.388;2023-09-19T02:59:32;5.67;;;5.17;;
10260;SDS011;5175;42.606;23.388;2023-09-19T03:02:01;5.90;;;5.40;;
10260;SDS011;5175;42.606;23.388;2023-09-19T03:04:29;7.40;;;5.60;;
10260;SDS011;5175;42.606;23.388;2023-09-19T03:06:58;7.47;;;6.10;;
10260;SDS011;5175;42.606;23.388;2023-09-19T03:09:26;6.80;;;6.00;;
10260;SDS011;5175;42.606;23.388;2023-09-19T03:11:54;7.30;;;5.67;;
10260;SDS011;5175;42.606;23.388;2023-09-19T03:14:21;6.37;;;5.73;;
10260;SDS011;5175;42.606;23.388;2023-09-19T03:16:49;6.33;;;5.67;;
10260;SDS011;5175;42.606;23.388;2023-09-19T03:19:17;6.50;;;5.43;;
10260;SDS011;5175;42.606;23.388;2023-09-19T03:21:46;5.93;;;5.30;;
10260;SDS011;5175;42.606;23.388;2023-09-19T03:24:14;6.13;;;5.53;;
10260;SDS011;5175;42.606;23.388;2023-09-19T03:26:41;6.10;;;5.50;;
10260;SDS011;5175;42.606;23.388;2023-09-19T03:29:09;7.53;;;5.83;;
10260;SDS011;5175;42.606;23.388;2023-09-19T03:31:36;6.20;;;5.60;;
10260;SDS011;5175;42.606;23.388;2023-09-19T03:34:03;6.03;;;5.43;;
10260;SDS011;5175;42.606;23.388;2023-09-19T03:36:30;7.33;;;5.23;;
10260;SDS011;5175;42.606;23.388;2023-09-19T03:38:59;7.23;;;5.50;;
10260;SDS011;5175;42.606;23.388;2023-09-19T03:41:26;6.40;;;5.07;;
10260;SDS011;5175;42.606;23.388;2023-09-19T03:43:53;7.87;;;5.63;;
10260;SDS011;5175;42.606;23.388;2023-09-19T03:46:21;7.37;;;6.27;;
10260;SDS011;5175;42.606;23.388;2023-09-19T03:48:47;6.50;;;5.90;;
10260;SDS011;5175;42.606;23.388;2023-09-19T03:51:15;6.43;;;5.83;;
10260;SDS011;5175;42.606;23.388;2023-09-19T03:53:42;5.73;;;5.23;;
10260;SDS011;5175;42.606;23.388;2023-09-19T03:56:08;6.93;;;6.17;;
10260;SDS011;5175;42.606;23.388;2023-09-19T03:58:35;6.73;;;5.60;;
10260;SDS011;5175;42.606;23.388;2023-09-19T04:01:04;8.07;;;5.97;;
10260;SDS011;5175;42.606;23.388;2023-09-19T04:03:33;5.90;;;5.40;;
10260;SDS011;5175;42.606;23.388;2023-09-19T04:06:11;9.30;;;5.90;;
10260;SDS011;5175;42.606;23.388;2023-09-19T04:08:38;8.87;;;5.93;;
10260;SDS011;5175;42.606;23.388;2023-09-19T04:11:04;7.47;;;5.63;;
10260;SDS011;5175;42.606;23.388;2023-09-19T04:13:31;5.93;;;5.37;;
10260;SDS011;5175;42.606;23.388;2023-09-19T04:15:58;12.70;;;7.00;;
10260;SDS011;5175;42.606;23.388;2023-09-19T04:18:25;8.17;;;6.17;;
10260;SDS011;5175;42.606;23.388;2023-09-19T04:20:53;6.67;;;5.90;;
10260;SDS011;5175;42.606;23.388;2023-09-19T04:23:21;7.47;;;6.00;;
10260;SDS011;5175;42.606;23.388;2023-09-19T04:25:47;6.33;;;5.63;;
10260;SDS011;5175;42.606;23.388;2023-09-19T04:28:14;7.30;;;5.53;;
10260;SDS011;5175;42.606;23.388;2023-09-19T04:30:41;7.33;;;5.90;;
10260;SDS011;5175;42.606;23.388;2023-09-19T04:33:09;7.77;;;5.60;;
10260;SDS011;5175;42.606;23.388;2023-09-19T04:35:36;8.70;;;5.80;;
10260;SDS011;5175;42.606;23.388;2023-09-19T04:38:05;8.33;;;5.70;;
10260;SDS011;5175;42.606;23.388;2023-09-19T04:40:32;12.00;;;5.93;;
10260;SDS011;5175;42.606;23.388;2023-09-19T04:42:59;10.90;;;5.97;;
10260;SDS011;5175;42.606;23.388;2023-09-19T04:45:27;8.50;;;5.97;;
10260;SDS011;5175;42.606;23.388;2023-09-19T04:47:54;10.13;;;5.70;;
10260;SDS011;5175;42.606;23.388;2023-09-19T04:50:21;7.00;;;5.93;;
10260;SDS011;5175;42.606;23.388;2023-09-19T04:52:49;6.10;;;5.50;;
10260;SDS011;5175;42.606;23.388;2023-09-19T04:55:18;7.13;;;5.87;;
10260;SDS011;5175;42.606;23.388;2023-09-19T04:57:45;7.87;;;6.30;;
10260;SDS011;5175;42.606;23.388;2023-09-19T05:00:13;8.37;;;6.17;;
10260;SDS011;5175;42.606;23.388;2023-09-19T05:02:42;5.90;;;5.40;;
10260;SDS011;5175;42.606;23.388;2023-09-19T05:05:09;6.70;;;6.00;;
10260;SDS011;5175;42.606;23.388;2023-09-19T05:07:36;6.93;;;5.87;;
10260;SDS011;5175;42.606;23.388;2023-09-19T05:10:03;6.60;;;5.90;;
10260;SDS011;5175;42.606;23.388;2023-09-19T05:12:33;5.80;;;5.23;;
10260;SDS011;5175;42.606;23.388;2023-09-19T05:15:01;8.90;;;6.10;;
10260;SDS011;5175;42.606;23.388;2023-09-19T05:17:28;7.43;;;6.70;;
10260;SDS011;5175;42.606;23.388;2023-09-19T05:19:55;7.07;;;6.30;;
10260;SDS011;5175;42.606;23.388;2023-09-19T05:22:22;7.50;;;6.53;;
10260;SDS011;5175;42.606;23.388;2023-09-19T05:24:49;6.87;;;6.17;;
10260;SDS011;5175;42.606;23.388;2023-09-19T05:27:18;7.13;;;6.10;;
10260;SDS011;5175;42.606;23.388;2023-09-19T05:29:47;6.93;;;6.30;;
10260;SDS011;5175;42.606;23.388;2023-09-19T05:32:14;6.53;;;5.90;;
10260;SDS011;5175;42.606;23.388;2023-09-19T05:34:41;9.20;;;6.33;;
10260;SDS011;5175;42.606;23.388;2023-09-19T05:37:07;6.57;;;5.83;;
10260;SDS011;5175;42.606;23.388;2023-09-19T05:39:34;8.23;;;6.00;;
10260;SDS011;5175;42.606;23.388;2023-09-19T05:42:02;8.80;;;6.10;;
10260;SDS011;5175;42.606;23.388;2023-09-19T05:44:29;5.63;;;5.13;;
10260;SDS011;5175;42.606;23.388;2023-09-19T05:46:59;6.75;;;5.82;;
10260;SDS011;5175;42.606;23.388;2023-09-19T05:49:26;7.95;;;6.00;;
10260;SDS011;5175;42.606;23.388;2023-09-19T05:51:53;6.20;;;5.57;;
10260;SDS011;5175;42.606;23.388;2023-09-19T05:54:24;6.13;;;5.30;;
10260;SDS011;5175;42.606;23.388;2023-09-19T05:56:51;6.93;;;5.80;;
10260;SDS011;5175;42.606;23.388;2023-09-19T05:59:18;6.20;;;5.45;;
10260;SDS011;5175;42.606;23.388;2023-09-19T06:01:45;6.07;;;5.57;;
10260;SDS011;5175;42.606;23.388;2023-09-19T06:04:13;6.15;;;5.60;;
10260;SDS011;5175;42.606;23.388;2023-09-19T06:06:40;6.00;;;5.45;;
10260;SDS011;5175;42.606;23.388;2023-09-19T06:09:07;5.63;;;5.13;;
10260;SDS011;5175;42.606;23.388;2023-09-19T06:11:34;5.75;;;5.07;;
10260;SDS011;5175;42.606;23.388;2023-09-19T06:14:01;8.27;;;5.25;;
10260;SDS011;5175;42.606;23.388;2023-09-19T06:16:28;6.55;;;5.47;;
10260;SDS011;5175;42.606;23.388;2023-09-19T06:18:55;5.90;;;5.10;;
10260;SDS011;5175;42.606;23.388;2023-09-19T06:21:23;5.57;;;5.03;;
10260;SDS011;5175;42.606;23.388;2023-09-19T06:23:51;6.38;;;5.40;;
10260;SDS011;5175;42.606;23.388;2023-09-19T06:26:18;5.68;;;5.18;;
10260;SDS011;5175;42.606;23.388;2023-09-19T06:28:45;6.72;;;5.60;;
10260;SDS011;5175;42.606;23.388;2023-09-19T06:31:12;9.45;;;5.68;;
10260;SDS011;5175;42.606;23.388;2023-09-19T06:33:39;5.70;;;5.05;;
10260;SDS011;5175;42.606;23.388;2023-09-19T06:36:05;5.53;;;4.90;;
10260;SDS011;5175;42.606;23.388;2023-09-19T06:38:34;5.63;;;5.05;;
10260;SDS011;5175;42.606;23.388;2023-09-19T06:41:01;5.53;;;5.03;;
10260;SDS011;5175;42.606;23.388;2023-09-19T06:43:30;6.60;;;5.22;;
10260;SDS011;5175;42.606;23.388;2023-09-19T06:45:57;5.55;;;5.05;;
10260;SDS011;5175;42.606;23.388;2023-09-19T06:48:25;7.32;;;5.13;;
10260;SDS011;5175;42.606;23.388;2023-09-19T06:50:52;5.40;;;4.90;;
10260;SDS011;5175;42.606;23.388;2023-09-19T06:53:20;8.60;;;5.45;;
10260;SDS011;5175;42.606;23.388;2023-09-19T06:55:50;6.10;;;5.47;;
10260;SDS011;5175;42.606;23.388;2023-09-19T06:58:17;13.43;;;6.25;;
10260;SDS011;5175;42.606;23.388;2023-09-19T07:00:44;17.13;;;7.93;;
10260;SDS011;5175;42.606;23.388;2023-09-19T07:03:13;8.90;;;5.30;;
10260;SDS011;5175;42.606;23.388;2023-09-19T07:05:41;8.13;;;5.60;;
10260;SDS011;5175;42.606;23.388;2023-09-19T07:08:09;6.55;;;5.30;;
10260;SDS011;5175;42.606;23.388;2023-09-19T07:10:37;6.30;;;5.32;;
10260;SDS011;5175;42.606;23.388;2023-09-19T07:13:07;8.88;;;5.75;;
10260;SDS011;5175;42.606;23.388;2023-09-19T07:15:36;8.05;;;5.35;;
10260;SDS011;5175;42.606;23.388;2023-09-19T07:18:04;6.35;;;5.13;;
10260;SDS011;5175;42.606;23.388;2023-09-19T07:20:36;6.32;;;5.13;;
10260;SDS011;5175;42.606;23.388;2023-09-19T07:23:03;5.85;;;4.88;;
10260;SDS011;5175;42.606;23.388;2023-09-19T07:25:31;9.00;;;5.57;;
10260;SDS011;5175;42.606;23.388;2023-09-19T07:27:58;7.15;;;5.25;;
10260;SDS011;5175;42.606;23.388;2023-09-19T07:30:27;34.40;;;10.23;;
10260;SDS011;5175;42.606;23.388;2023-09-19T07:32:54;8.20;;;5.30;;
10260;SDS011;5175;42.606;23.388;2023-09-19T07:35:21;6.30;;;5.68;;
10260;SDS011;5175;42.606;23.388;2023-09-19T07:37:48;8.00;;;5.47;;
10260;SDS011;5175;42.606;23.388;2023-09-19T07:40:16;6.80;;;5.63;;
10260;SDS011;5175;42.606;23.388;2023-09-19T07:42:43;6.68;;;5.05;;
10260;SDS011;5175;42.606;23.388;2023-09-19T07:45:12;6.75;;;5.30;;
10260;SDS011;5175;42.606;23.388;2023-09-19T07:47:44;6.50;;;5.00;;
10260;SDS011;5175;42.606;23.388;2023-09-19T07:50:12;5.85;;;4.85;;
10260;SDS011;5175;42.606;23.388;2023-09-19T07:52:38;7.38;;;4.93;;
10260;SDS011;5175;42.606;23.388;2023-09-19T07:55:05;5.80;;;5.03;;
10260;SDS011;5175;42.606;23.388;2023-09-19T07:57:36;5.65;;;4.97;;
10260;SDS011;5175;42.606;23.388;2023-09-19T08:00:03;10.93;;;5.07;;
10260;SDS011;5175;42.606;23.388;2023-09-19T08:02:34;6.90;;;5.00;;
10260;SDS011;5175;42.606;23.388;2023-09-19T08:05:04;8.63;;;5.60;;
10260;SDS011;5175;42.606;23.388;2023-09-19T08:07:35;7.13;;;5.03;;
10260;SDS011;5175;42.606;23.388;2023-09-19T08:10:02;7.60;;;5.32;;
10260;SDS011;5175;42.606;23.388;2023-09-19T08:12:29;6.53;;;5.15;;
10260;SDS011;5175;42.606;23.388;2023-09-19T08:14:55;6.88;;;5.40;;
10260;SDS011;5175;42.606;23.388;2023-09-19T08:17:22;6.85;;;5.20;;
10260;SDS011;5175;42.606;23.388;2023-09-19T08:19:49;7.60;;;5.25;;
10260;SDS011;5175;42.606;23.388;2023-09-19T08:22:19;5.90;;;5.13;;
10260;SDS011;5175;42.606;23.388;2023-09-19T08:24:46;6.97;;;5.00;;
10260;SDS011;5175;42.606;23.388;2023-09-19T08:27:14;6.05;;;5.30;;
10260;SDS011;5175;42.606;23.388;2023-09-19T08:29:43;6.35;;;4.63;;
10260;SDS011;5175;42.606;23.388;2023-09-19T08:32:10;5.75;;;4.80;;
10260;SDS011;5175;42.606;23.388;2023-09-19T08:34:37;5.32;;;4.82;;
10260;SDS011;5175;42.606;23.388;2023-09-19T08:37:04;5.13;;;4.63;;
10260;SDS011;5175;42.606;23.388;2023-09-19T08:39:32;6.13;;;4.95;;
10260;SDS011;5175;42.606;23.388;2023-09-19T08:42:00;5.20;;;4.70;;
10260;SDS011;5175;42.606;23.388;2023-09-19T08:44:28;7.18;;;5.03;;
10260;SDS011;5175;42.606;23.388;2023-09-19T08:46:57;6.20;;;4.68;;
10260;SDS011;5175;42.606;23.388;2023-09-19T08:49:36;6.88;;;5.05;;
10260;SDS011;5175;42.606;23.388;2023-09-19T08:52:16;5.22;;;4.68;;
10260;SDS011;5175;42.606;23.388;2023-09-19T08:54:50;8.52;;;7.68;;
10260;SDS011;5175;42.606;23.388;2023-09-19T08:57:19;9.93;;;8.98;;
10260;SDS011;5175;42.606;23.388;2023-09-19T08:59:47;6.03;;;5.53;;
10260;SDS011;5175;42.606;23.388;2023-09-19T09:02:15;7.05;;;4.82;;
10260;SDS011;5175;42.606;23.388;2023-09-19T09:04:42;7.10;;;4.85;;
10260;SDS011;5175;42.606;23.388;2023-09-19T09:07:10;5.55;;;4.57;;
10260;SDS011;5175;42.606;23.388;2023-09-19T09:09:38;6.63;;;4.80;;
10260;SDS011;5175;42.606;23.388;2023-09-19T09:12:08;6.70;;;4.63;;
10260;SDS011;5175;42.606;23.388;2023-09-19T09:14:38;7.00;;;4.93;;
10260;SDS011;5175;42.606;23.388;2023-09-19T09:17:05;6.47;;;4.40;;
10260;SDS011;5175;42.606;23.388;2023-09-19T09:19:32;5.07;;;4.68;;
10260;SDS011;5175;42.606;23.388;2023-09-19T09:22:05;4.70;;;4.28;;
10260;SDS011;5175;42.606;23.388;2023-09-19T09:24:33;5.60;;;5.00;;
10260;SDS011;5175;42.606;23.388;2023-09-19T09:27:03;5.32;;;4.80;;
10260;SDS011;5175;42.606;23.388;2023-09-19T09:29:44;5.53;;;4.72;;
10260;SDS011;5175;42.606;23.388;2023-09-19T09:32:18;5.38;;;4.88;;
10260;SDS011;5175;42.606;23.388;2023-09-19T09:34:46;5.47;;;4.55;;
10260;SDS011;5175;42.606;23.388;2023-09-19T09:37:15;6.20;;;5.20;;
10260;SDS011;5175;42.606;23.388;2023-09-19T09:39:54;5.13;;;4.63;;
10260;SDS011;5175;42.606;23.388;2023-09-19T09:42:29;5.38;;;4.43;;
10260;SDS011;5175;42.606;23.388;2023-09-19T09:45:14;5.22;;;4.57;;
10260;SDS011;5175;42.606;23.388;2023-09-19T09:47:43;6.45;;;4.75;;
10260;SDS011;5175;42.606;23.388;2023-09-19T09:50:25;4.93;;;4.53;;
10260;SDS011;5175;42.606;23.388;2023-09-19T09:53:04;5.90;;;4.45;;
10260;SDS011;5175;42.606;23.388;2023-09-19T09:55:58;5.45;;;4.80;;
10260;SDS011;5175;42.606;23.388;2023-09-19T09:58:31;6.53;;;4.47;;
10260;SDS011;5175;42.606;23.388;2023-09-19T10:01:02;6.13;;;4.50;;
10260;SDS011;5175;42.606;23.388;2023-09-19T10:03:34;5.15;;;4.75;;
10260;SDS011;5175;42.606;23.388;2023-09-19T10:06:05;5.38;;;4.43;;
10260;SDS011;5175;42.606;23.388;2023-09-19T10:09:02;5.03;;;4.43;;
10260;SDS011;5175;42.606;23.388;2023-09-19T10:11:38;5.47;;;4.00;;
10260;SDS011;5175;42.606;23.388;2023-09-19T10:14:13;5.65;;;4.35;;
10260;SDS011;5175;42.606;23.388;2023-09-19T10:16:45;5.10;;;4.22;;
10260;SDS011;5175;42.606;23.388;2023-09-19T10:19:15;5.10;;;4.60;;
10260;SDS011;5175;42.606;23.388;2023-09-19T10:21:49;6.15;;;4.45;;
10260;SDS011;5175;42.606;23.388;2023-09-19T10:24:17;5.70;;;5.00;;
10260;SDS011;5175;42.606;23.388;2023-09-19T10:26:46;4.53;;;4.13;;
10260;SDS011;5175;42.606;23.388;2023-09-19T10:29:15;5.80;;;4.80;;
10260;SDS011;5175;42.606;23.388;2023-09-19T10:31:46;5.10;;;4.53;;
10260;SDS011;5175;42.606;23.388;2023-09-19T10:34:14;6.05;;;4.65;;
10260;SDS011;5175;42.606;23.388;2023-09-19T10:36:43;6.13;;;4.15;;
10260;SDS011;5175;42.606;23.388;2023-09-19T10:39:12;5.35;;;4.40;;
10260;SDS011;5175;42.606;23.388;2023-09-19T10:41:44;4.70;;;4.20;;
10260;SDS011;5175;42.606;23.388;2023-09-19T10:44:20;4.75;;;4.30;;
10260;SDS011;5175;42.606;23.388;2023-09-19T10:46:51;6.43;;;4.38;;
10260;SDS011;5175;42.606;23.388;2023-09-19T10:49:19;6.35;;;4.35;;
10260;SDS011;5175;42.606;23.388;2023-09-19T10:51:46;5.97;;;4.55;;
10260;SDS011;5175;42.606;23.388;2023-09-19T10:54:16;4.55;;;4.15;;
10260;SDS011;5175;42.606;23.388;2023-09-19T10:56:48;5.97;;;5.05;;
10260;SDS011;5175;42.606;23.388;2023-09-19T10:59:17;5.30;;;4.38;;
10260;SDS011;5175;42.606;23.388;2023-09-19T11:01:46;6.63;;;4.78;;
10260;SDS011;5175;42.606;23.388;2023-09-19T11:04:30;5.10;;;4.63;;
10260;SDS011;5175;42.606;23.388;2023-09-19T11:06:59;6.63;;;4.57;;
10260;SDS011;5175;42.606;23.388;2023-09-19T11:09:42;5.78;;;4.50;;
10260;SDS011;5175;42.606;23.388;2023-09-19T11:12:11;5.53;;;5.03;;
10260;SDS011;5175;42.606;23.388;2023-09-19T11:14:39;8.20;;;4.57;;
10260;SDS011;5175;42.606;23.388;2023-09-19T11:20:23;8.25;;;4.82;;
10260;SDS011;5175;42.606;23.388;2023-09-19T11:25:51;6.05;;;4.75;;
10260;SDS011;5175;42.606;23.388;2023-09-19T11:28:28;6.18;;;4.50;;
10260;SDS011;5175;42.606;23.388;2023-09-19T11:30:56;6.30;;;4.97;;
10260;SDS011;5175;42.606;23.388;2023-09-19T11:33:24;5.53;;;5.00;;
10260;SDS011;5175;42.606;23.388;2023-09-19T11:36:04;6.65;;;4.68;;
10260;SDS011;5175;42.606;23.388;2023-09-19T11:41:36;4.68;;;4.28;;
10260;SDS011;5175;42.606;23.388;2023-09-19T11:47:00;5.70;;;4.70;;
10260;SDS011;5175;42.606;23.388;2023-09-19T11:49:29;5.88;;;4.70;;
10260;SDS011;5175;42.606;23.388;2023-09-19T11:51:58;4.97;;;4.40;;
10260;SDS011;5175;42.606;23.388;2023-09-19T11:54:29;5.60;;;4.63;;
10260;SDS011;5175;42.606;23.388;2023-09-19T11:56:57;5.40;;;4.60;;
10260;SDS011;5175;42.606;23.388;2023-09-19T11:59:25;6.63;;;5.00;;
10260;SDS011;5175;42.606;23.388;2023-09-19T12:01:53;5.43;;;4.40;;
10260;SDS011;5175;42.606;23.388;2023-09-19T12:04:31;6.63;;;4.90;;
10260;SDS011;5175;42.606;23.388;2023-09-19T12:07:04;6.55;;;4.68;;
10260;SDS011;5175;42.606;23.388;2023-09-19T12:09:35;6.13;;;4.93;;
10260;SDS011;5175;42.606;23.388;2023-09-19T12:12:05;6.05;;;4.80;;
10260;SDS011;5175;42.606;23.388;2023-09-19T12:14:32;4.80;;;4.40;;
10260;SDS011;5175;42.606;23.388;2023-09-19T12:17:00;5.30;;;4.78;;
10260;SDS011;5175;42.606;23.388;2023-09-19T12:19:28;7.15;;;4.70;;
10260;SDS011;5175;42.606;23.388;2023-09-19T12:21:58;5.43;;;4.70;;
10260;SDS011;5175;42.606;23.388;2023-09-19T12:24:31;6.15;;;5.40;;
10260;SDS011;5175;42.606;23.388;2023-09-19T12:27:00;5.70;;;4.65;;
10260;SDS011;5175;42.606;23.388;2023-09-19T12:29:29;6.43;;;4.47;;
10260;SDS011;5175;42.606;23.388;2023-09-19T12:31:56;6.45;;;4.50;;
10260;SDS011;5175;42.606;23.388;2023-09-19T12:34:24;6.47;;;3.97;;
10260;SDS011;5175;42.606;23.388;2023-09-19T12:37:06;5.05;;;4.47;;
10260;SDS011;5175;42.606;23.388;2023-09-19T12:39:39;5.65;;;4.97;;
10260;SDS011;5175;42.606;23.388;2023-09-19T12:42:13;5.85;;;4.47;;
10260;SDS011;5175;42.606;23.388;2023-09-19T12:44:42;6.20;;;4.50;;
10260;SDS011;5175;42.606;23.388;2023-09-19T12:47:10;5.07;;;4.15;;
10260;SDS011;5175;42.606;23.388;2023-09-19T12:52:40;7.78;;;4.68;;
10260;SDS011;5175;42.606;23.388;2023-09-19T12:55:20;5.40;;;4.60;;
10260;SDS011;5175;42.606;23.388;2023-09-19T12:57:58;4.97;;;4.45;;
10260;SDS011;5175;42.606;23.388;2023-09-19T13:00:36;6.32;;;4.10;;
10260;SDS011;5175;42.606;23.388;2023-09-19T13:03:16;5.43;;;4.18;;
10260;SDS011;5175;42.606;23.388;2023-09-19T13:05:51;7.53;;;4.53;;
10260;SDS011;5175;42.606;23.388;2023-09-19T13:08:21;6.65;;;4.45;;
10260;SDS011;5175;42.606;23.388;2023-09-19T13:11:09;6.07;;;4.18;;
10260;SDS011;5175;42.606;23.388;2023-09-19T13:13:38;6.75;;;4.38;;
10260;SDS011;5175;42.606;23.388;2023-09-19T13:16:13;8.30;;;4.60;;
10260;SDS011;5175;42.606;23.388;2023-09-19T13:18:45;5.65;;;4.55;;
10260;SDS011;5175;42.606;23.388;2023-09-19T13:21:15;6.00;;;4.38;;
10260;SDS011;5175;42.606;23.388;2023-09-19T13:23:49;6.28;;;4.90;;
10260;SDS011;5175;42.606;23.388;2023-09-19T13:26:18;5.95;;;4.43;;
10260;SDS011;5175;42.606;23.388;2023-09-19T13:28:45;5.78;;;4.68;;
10260;SDS011;5175;42.606;23.388;2023-09-19T13:31:13;4.88;;;4.38;;
10260;SDS011;5175;42.606;23.388;2023-09-19T13:33:42;6.70;;;4.32;;
10260;SDS011;5175;42.606;23.388;2023-09-19T13:36:10;6.95;;;4.55;;
10260;SDS011;5175;42.606;23.388;2023-09-19T13:38:38;5.03;;;4.35;;
10260;SDS011;5175;42.606;23.388;2023-09-19T13:41:05;6.28;;;4.47;;
10260;SDS011;5175;42.606;23.388;2023-09-19T13:43:33;5.75;;;4.50;;
10260;SDS011;5175;42.606;23.388;2023-09-19T13:46:00;7.50;;;4.53;;
10260;SDS011;5175;42.606;23.388;2023-09-19T13:48:27;7.25;;;4.25;;
10260;SDS011;5175;42.606;23.388;2023-09-19T13:50:54;7.65;;;4.88;;
10260;SDS011;5175;42.606;23.388;2023-09-19T13:53:22;5.95;;;4.47;;
10260;SDS011;5175;42.606;23.388;2023-09-19T13:55:48;5.22;;;4.50;;
10260;SDS011;5175;42.606;23.388;2023-09-19T13:58:15;5.65;;;4.32;;
10260;SDS011;5175;42.606;23.388;2023-09-19T14:00:43;5.03;;;4.15;;
10260;SDS011;5175;42.606;23.388;2023-09-19T14:03:10;7.45;;;4.72;;
10260;SDS011;5175;42.606;23.388;2023-09-19T14:05:37;4.50;;;4.10;;
10260;SDS011;5175;42.606;23.388;2023-09-19T14:08:04;7.15;;;4.60;;
10260;SDS011;5175;42.606;23.388;2023-09-19T14:10:31;7.80;;;4.45;;
10260;SDS011;5175;42.606;23.388;2023-09-19T14:12:58;8.30;;;4.97;;
10260;SDS011;5175;42.606;23.388;2023-09-19T14:15:25;5.10;;;4.60;;
10260;SDS011;5175;42.606;23.388;2023-09-19T14:17:57;8.13;;;4.63;;
10260;SDS011;5175;42.606;23.388;2023-09-19T14:20:24;4.70;;;4.28;;
10260;SDS011;5175;42.606;23.388;2023-09-19T14:22:51;5.05;;;4.47;;
10260;SDS011;5175;42.606;23.388;2023-09-19T14:25:18;5.38;;;4.70;;
10260;SDS011;5175;42.606;23.388;2023-09-19T14:27:46;5.85;;;4.55;;
10260;SDS011;5175;42.606;23.388;2023-09-19T14:30:13;4.88;;;4.20;;
10260;SDS011;5175;42.606;23.388;2023-09-19T14:32:40;5.32;;;4.82;;
10260;SDS011;5175;42.606;23.388;2023-09-19T14:35:08;4.72;;;4.32;;
10260;SDS011;5175;42.606;23.388;2023-09-19T14:37:35;4.70;;;4.03;;
10260;SDS011;5175;42.606;23.388;2023-09-19T14:40:04;5.40;;;4.40;;
10260;SDS011;5175;42.606;23.388;2023-09-19T14:42:34;6.18;;;4.22;;
10260;SDS011;5175;42.606;23.388;2023-09-19T14:45:03;4.60;;;4.10;;
10260;SDS011;5175;42.606;23.388;2023-09-19T14:47:31;5.30;;;4.05;;
10260;SDS011;5175;42.606;23.388;2023-09-19T14:49:58;5.57;;;4.30;;
10260;SDS011;5175;42.606;23.388;2023-09-19T14:52:27;4.90;;;4.50;;
10260;SDS011;5175;42.606;23.388;2023-09-19T14:54:54;5.47;;;4.25;;
10260;SDS011;5175;42.606;23.388;2023-09-19T14:57:21;5.90;;;4.63;;
10260;SDS011;5175;42.606;23.388;2023-09-19T14:59:49;4.85;;;4.38;;
10260;SDS011;5175;42.606;23.388;2023-09-19T15:02:16;4.63;;;4.10;;
10260;SDS011;5175;42.606;23.388;2023-09-19T15:04:43;5.13;;;4.50;;
10260;SDS011;5175;42.606;23.388;2023-09-19T15:07:12;5.40;;;4.90;;
10260;SDS011;5175;42.606;23.388;2023-09-19T15:09:41;7.35;;;5.03;;
10260;SDS011;5175;42.606;23.388;2023-09-19T15:12:08;7.57;;;4.95;;
10260;SDS011;5175;42.606;23.388;2023-09-19T15:14:39;8.77;;;5.28;;
10260;SDS011;5175;42.606;23.388;2023-09-19T15:17:06;4.80;;;4.40;;